sensor_id;sensor_type;location;lat;lon;timestamp;pressure;altitude;pressure_sealevel;temperature;humidity
49945;BME280;35838;49.134;9.212;2023-01-26T00:00:29;100559.88;;;0.49;92.70
49945;BME280;35838;49.134;9.212;2023-01-26T00:02:03;100554.97;;;0.53;93.27
49945;BME280;35838;49.134;9.212;2023-01-26T00:03:37;100555.94;;;0.55;93.70
49945;BME280;35838;49.134;9.212;2023-01-26T00:05:10;100546.78;;;0.60;93.75
49945;BME280;35838;49.134;9.212;2023-01-26T00:06:44;100547.75;;;0.62;93.89
49945;BME280;35838;49.134;9.212;2023-01-26T00:08:18;100540.63;;;0.55;94.06
49945;BME280;35838;49.134;9.212;2023-01-26T00:09:51;100539.28;;;0.64;94.06
49945;BME280;35838;49.134;9.212;2023-01-26T00:11:25;100529.50;;;0.55;93.70
49945;BME280;35838;49.134;9.212;2023-01-26T00:12:59;100533.44;;;0.66;93.79
49945;BME280;35838;49.134;9.212;2023-01-26T00:14:33;100530.94;;;0.68;93.32
49945;BME280;35838;49.134;9.212;2023-01-26T00:16:19;100526.31;;;0.59;92.69
49945;BME280;35838;49.134;9.212;2023-01-26T00:17:53;100524.28;;;0.52;92.72
49945;BME280;35838;49.134;9.212;2023-01-26T00:19:26;100521.94;;;0.56;93.29
49945;BME280;35838;49.134;9.212;2023-01-26T00:21:01;100523.22;;;0.66;93.42
49945;BME280;35838;49.134;9.212;2023-01-26T00:22:34;100521.78;;;0.53;93.46
49945;BME280;35838;49.134;9.212;2023-01-26T00:24:08;100521.03;;;0.56;93.36
49945;BME280;35838;49.134;9.212;2023-01-26T00:25:42;100520.59;;;0.65;93.91
49945;BME280;35838;49.134;9.212;2023-01-26T00:27:15;100507.28;;;0.72;93.63
49945;BME280;35838;49.134;9.212;2023-01-26T00:28:49;100514.56;;;0.82;93.65
49945;BME280;35838;49.134;9.212;2023-01-26T00:30:23;100505.69;;;0.74;93.16
49945;BME280;35838;49.134;9.212;2023-01-26T00:31:57;100499.69;;;0.73;93.00
49945;BME280;35838;49.134;9.212;2023-01-26T00:33:30;100499.84;;;0.76;92.74
49945;BME280;35838;49.134;9.212;2023-01-26T00:35:04;100503.41;;;0.80;92.42
49945;BME280;35838;49.134;9.212;2023-01-26T00:36:40;100503.25;;;0.77;92.32
49945;BME280;35838;49.134;9.212;2023-01-26T00:38:14;100498.50;;;0.85;92.69
49945;BME280;35838;49.134;9.212;2023-01-26T00:39:45;100499.78;;;0.94;92.52
49945;BME280;35838;49.134;9.212;2023-01-26T00:41:19;100495.56;;;0.95;92.56
49945;BME280;35838;49.134;9.212;2023-01-26T00:43:05;100505.03;;;0.98;92.51
49945;BME280;35838;49.134;9.212;2023-01-26T00:44:39;100494.41;;;0.88;92.14
49945;BME280;35838;49.134;9.212;2023-01-26T00:46:13;100497.22;;;0.94;91.99
49945;BME280;35838;49.134;9.212;2023-01-26T00:47:46;100497.81;;;0.89;91.58
49945;BME280;35838;49.134;9.212;2023-01-26T00:49:20;100495.41;;;0.92;91.81
49945;BME280;35838;49.134;9.212;2023-01-26T00:50:53;100496.34;;;0.94;91.63
49945;BME280;35838;49.134;9.212;2023-01-26T00:52:30;100495.88;;;0.83;91.62
49945;BME280;35838;49.134;9.212;2023-01-26T00:54:03;100502.22;;;0.91;91.64
49945;BME280;35838;49.134;9.212;2023-01-26T00:55:34;100500.56;;;0.93;91.37
49945;BME280;35838;49.134;9.212;2023-01-26T00:57:08;100502.00;;;0.87;91.24
49945;BME280;35838;49.134;9.212;2023-01-26T00:58:42;100499.44;;;0.87;91.15
49945;BME280;35838;49.134;9.212;2023-01-26T01:00:15;100498.72;;;0.89;91.16
49945;BME280;35838;49.134;9.212;2023-01-26T01:01:50;100496.16;;;0.89;91.36
49945;BME280;35838;49.134;9.212;2023-01-26T01:03:21;100492.91;;;0.93;91.17
49945;BME280;35838;49.134;9.212;2023-01-26T01:04:55;100498.97;;;0.96;90.90
49945;BME280;35838;49.134;9.212;2023-01-26T01:06:28;100499.03;;;0.97;90.81
49945;BME280;35838;49.134;9.212;2023-01-26T01:08:02;100498.72;;;0.89;90.83
49945;BME280;35838;49.134;9.212;2023-01-26T01:09:36;100497.34;;;0.78;90.78
49945;BME280;35838;49.134;9.212;2023-01-26T01:11:10;100496.00;;;0.86;91.12
49945;BME280;35838;49.134;9.212;2023-01-26T01:12:44;100495.88;;;0.83;91.21
49945;BME280;35838;49.134;9.212;2023-01-26T01:14:17;100498.75;;;0.91;91.07
49945;BME280;35838;49.134;9.212;2023-01-26T01:15:51;100494.66;;;0.94;90.56
49945;BME280;35838;49.134;9.212;2023-01-26T01:17:22;100492.91;;;0.93;90.13
49945;BME280;35838;49.134;9.212;2023-01-26T01:18:56;100496.16;;;0.89;90.01
49945;BME280;35838;49.134;9.212;2023-01-26T01:20:29;100482.69;;;0.93;89.92
49945;BME280;35838;49.134;9.212;2023-01-26T01:22:03;100481.63;;;0.88;89.56
49945;BME280;35838;49.134;9.212;2023-01-26T01:23:39;100483.38;;;0.89;89.48
49945;BME280;35838;49.134;9.212;2023-01-26T01:25:11;100480.13;;;0.74;89.09
49945;BME280;35838;49.134;9.212;2023-01-26T01:26:44;100480.38;;;0.60;89.59
49945;BME280;35838;49.134;9.212;2023-01-26T01:28:18;100478.91;;;0.66;89.97
49945;BME280;35838;49.134;9.212;2023-01-26T01:29:49;100480.59;;;0.65;90.24
49945;BME280;35838;49.134;9.212;2023-01-26T01:31:23;100477.41;;;0.51;90.33
49945;BME280;35838;49.134;9.212;2023-01-26T01:32:58;100479.31;;;0.55;90.70
49945;BME280;35838;49.134;9.212;2023-01-26T01:34:29;100479.41;;;0.39;90.99
49945;BME280;35838;49.134;9.212;2023-01-26T01:36:03;100477.78;;;0.41;91.95
49945;BME280;35838;49.134;9.212;2023-01-26T01:37:35;100468.09;;;0.34;92.14
49945;BME280;35838;49.134;9.212;2023-01-26T01:39:11;100473.78;;;0.46;92.43
49945;BME280;35838;49.134;9.212;2023-01-26T01:40:45;100476.59;;;0.52;92.24
49945;BME280;35838;49.134;9.212;2023-01-26T01:42:16;100481.06;;;0.56;91.98
49945;BME280;35838;49.134;9.212;2023-01-26T01:43:50;100481.31;;;0.62;91.89
49945;BME280;35838;49.134;9.212;2023-01-26T01:45:31;100471.06;;;0.61;91.01
49945;BME280;35838;49.134;9.212;2023-01-26T01:47:08;100471.25;;;0.66;90.77
49945;BME280;35838;49.134;9.212;2023-01-26T01:48:47;100473.72;;;0.64;90.89
49945;BME280;35838;49.134;9.212;2023-01-26T01:50:20;100477.66;;;0.57;90.86
49945;BME280;35838;49.134;9.212;2023-01-26T01:51:55;100469.34;;;0.61;90.61
49945;BME280;35838;49.134;9.212;2023-01-26T01:53:31;100471.25;;;0.66;90.44
49945;BME280;35838;49.134;9.212;2023-01-26T01:55:06;100467.75;;;0.64;90.87
49945;BME280;35838;49.134;9.212;2023-01-26T01:56:41;100466.56;;;0.75;90.74
49945;BME280;35838;49.134;9.212;2023-01-26T01:58:17;100468.56;;;0.62;90.89
49945;BME280;35838;49.134;9.212;2023-01-26T01:59:50;100470.84;;;0.56;90.95
49945;BME280;35838;49.134;9.212;2023-01-26T02:01:26;100469.50;;;0.65;90.98
49945;BME280;35838;49.134;9.212;2023-01-26T02:03:01;100473.31;;;0.55;90.52
49945;BME280;35838;49.134;9.212;2023-01-26T02:04:41;100460.81;;;0.61;90.62
49945;BME280;35838;49.134;9.212;2023-01-26T02:06:15;100459.41;;;0.68;90.60
49945;BME280;35838;49.134;9.212;2023-01-26T02:07:51;100458.38;;;0.64;90.67
49945;BME280;35838;49.134;9.212;2023-01-26T02:09:26;100459.53;;;0.71;90.76
49945;BME280;35838;49.134;9.212;2023-01-26T02:11:18;100466.69;;;0.78;90.45
49945;BME280;35838;49.134;9.212;2023-01-26T02:12:53;100467.16;;;0.69;90.03
49945;BME280;35838;49.134;9.212;2023-01-26T02:14:25;100453.22;;;0.62;90.19
49945;BME280;35838;49.134;9.212;2023-01-26T02:15:59;100449.38;;;0.53;90.37
49945;BME280;35838;49.134;9.212;2023-01-26T02:17:30;100450.59;;;0.61;90.57
49945;BME280;35838;49.134;9.212;2023-01-26T02:19:04;100452.53;;;0.67;90.59
49945;BME280;35838;49.134;9.212;2023-01-26T02:20:42;100453.69;;;0.73;90.76
49945;BME280;35838;49.134;9.212;2023-01-26T02:22:16;100455.00;;;0.83;90.72
49945;BME280;35838;49.134;9.212;2023-01-26T02:23:55;100452.44;;;0.83;90.54
49945;BME280;35838;49.134;9.212;2023-01-26T02:25:32;100447.31;;;0.64;89.94
49945;BME280;35838;49.134;9.212;2023-01-26T02:27:14;100445.34;;;0.58;90.35
49945;BME280;35838;49.134;9.212;2023-01-26T02:28:48;100446.75;;;0.51;91.22
49945;BME280;35838;49.134;9.212;2023-01-26T02:30:22;100444.94;;;0.49;91.38
49945;BME280;35838;49.134;9.212;2023-01-26T02:31:56;100450.41;;;0.56;91.62
49945;BME280;35838;49.134;9.212;2023-01-26T02:33:30;100444.06;;;0.68;91.79
49945;BME280;35838;49.134;9.212;2023-01-26T02:35:02;100437.63;;;0.76;91.59
49945;BME280;35838;49.134;9.212;2023-01-26T02:36:35;100431.38;;;0.69;91.20
49945;BME280;35838;49.134;9.212;2023-01-26T02:38:09;100438.56;;;0.78;91.43
49945;BME280;35838;49.134;9.212;2023-01-26T02:39:42;100439.56;;;0.82;91.46
49945;BME280;35838;49.134;9.212;2023-01-26T02:41:17;100436.41;;;0.87;91.15
49945;BME280;35838;49.134;9.212;2023-01-26T02:43:11;100442.78;;;0.97;91.04
49945;BME280;35838;49.134;9.212;2023-01-26T02:44:45;100441.19;;;0.99;90.65
49945;BME280;35838;49.134;9.212;2023-01-26T02:46:16;100443.00;;;1.02;90.35
49945;BME280;35838;49.134;9.212;2023-01-26T02:47:49;100444.09;;;1.07;90.22
49945;BME280;35838;49.134;9.212;2023-01-26T02:49:23;100445.84;;;1.08;89.79
49945;BME280;35838;49.134;9.212;2023-01-26T02:51:21;100438.41;;;1.14;89.02
49945;BME280;35838;49.134;9.212;2023-01-26T02:52:52;100431.25;;;1.05;88.90
49945;BME280;35838;49.134;9.212;2023-01-26T02:54:26;100425.19;;;0.84;88.65
49945;BME280;35838;49.134;9.212;2023-01-26T02:56:12;100428.09;;;0.91;88.26
49945;BME280;35838;49.134;9.212;2023-01-26T02:57:45;100426.59;;;0.77;88.22
49945;BME280;35838;49.134;9.212;2023-01-26T02:59:19;100422.03;;;0.70;88.14
49945;BME280;35838;49.134;9.212;2023-01-26T03:00:53;100419.25;;;0.65;88.67
49945;BME280;35838;49.134;9.212;2023-01-26T03:02:26;100424.56;;;0.70;88.85
49945;BME280;35838;49.134;9.212;2023-01-26T03:03:57;100418.28;;;0.81;88.35
49945;BME280;35838;49.134;9.212;2023-01-26T03:05:31;100419.84;;;0.59;88.49
49945;BME280;35838;49.134;9.212;2023-01-26T03:07:05;100408.25;;;0.66;88.73
49945;BME280;35838;49.134;9.212;2023-01-26T03:08:36;100412.47;;;0.46;87.87
49945;BME280;35838;49.134;9.212;2023-01-26T03:10:10;100417.44;;;0.43;88.26
49945;BME280;35838;49.134;9.212;2023-01-26T03:11:45;100413.06;;;0.40;88.18
49945;BME280;35838;49.134;9.212;2023-01-26T03:13:19;100407.06;;;0.20;89.16
49945;BME280;35838;49.134;9.212;2023-01-26T03:14:55;100404.63;;;0.23;89.49
49945;BME280;35838;49.134;9.212;2023-01-26T03:16:41;100398.88;;;0.27;89.86
49945;BME280;35838;49.134;9.212;2023-01-26T03:18:15;100398.53;;;0.02;89.65
49945;BME280;35838;49.134;9.212;2023-01-26T03:20:02;100390.22;;;0.06;90.34
49945;BME280;35838;49.134;9.212;2023-01-26T03:21:48;100401.81;;;0.17;90.23
49945;BME280;35838;49.134;9.212;2023-01-26T03:23:34;100391.84;;;0.23;90.01
49945;BME280;35838;49.134;9.212;2023-01-26T03:25:20;100404.94;;;0.29;89.70
49945;BME280;35838;49.134;9.212;2023-01-26T03:27:07;100395.13;;;0.39;89.26
49945;BME280;35838;49.134;9.212;2023-01-26T03:28:54;100399.81;;;0.49;88.93
49945;BME280;35838;49.134;9.212;2023-01-26T03:30:30;100399.00;;;0.50;88.30
49945;BME280;35838;49.134;9.212;2023-01-26T03:32:04;100390.81;;;0.57;87.72
49945;BME280;35838;49.134;9.212;2023-01-26T03:33:37;100387.59;;;0.61;87.70
49945;BME280;35838;49.134;9.212;2023-01-26T03:35:11;100390.34;;;0.66;87.48
49945;BME280;35838;49.134;9.212;2023-01-26T03:36:45;100395.72;;;0.72;87.51
49945;BME280;35838;49.134;9.212;2023-01-26T03:38:16;100396.88;;;0.79;86.67
49945;BME280;35838;49.134;9.212;2023-01-26T03:39:50;100391.91;;;0.82;85.80
49945;BME280;35838;49.134;9.212;2023-01-26T03:41:35;100396.06;;;0.80;85.45
49945;BME280;35838;49.134;9.212;2023-01-26T03:43:21;100382.75;;;0.68;85.63
49945;BME280;35838;49.134;9.212;2023-01-26T03:45:08;100380.34;;;0.71;85.27
49945;BME280;35838;49.134;9.212;2023-01-26T03:46:56;100384.91;;;0.78;85.50
49945;BME280;35838;49.134;9.212;2023-01-26T03:48:42;100385.09;;;0.83;85.77
49945;BME280;35838;49.134;9.212;2023-01-26T03:50:28;100391.00;;;0.82;85.38
49945;BME280;35838;49.134;9.212;2023-01-26T03:52:15;100388.16;;;0.74;85.03
49945;BME280;35838;49.134;9.212;2023-01-26T03:54:00;100382.75;;;0.68;85.24
49945;BME280;35838;49.134;9.212;2023-01-26T03:55:46;100385.44;;;0.71;85.74
49945;BME280;35838;49.134;9.212;2023-01-26T03:57:32;100386.50;;;0.76;85.11
49945;BME280;35838;49.134;9.212;2023-01-26T03:59:07;100383.16;;;0.77;85.16
49945;BME280;35838;49.134;9.212;2023-01-26T04:00:44;100376.03;;;0.70;84.68
49945;BME280;35838;49.134;9.212;2023-01-26T04:02:22;100382.34;;;0.58;84.57
49945;BME280;35838;49.134;9.212;2023-01-26T04:04:09;100382.97;;;0.53;84.22
49945;BME280;35838;49.134;9.212;2023-01-26T04:05:56;100385.84;;;0.41;84.38
49945;BME280;35838;49.134;9.212;2023-01-26T04:07:42;100387.78;;;0.46;84.96
49945;BME280;35838;49.134;9.212;2023-01-26T04:09:29;100383.50;;;0.26;85.11
49945;BME280;35838;49.134;9.212;2023-01-26T04:11:02;100382.00;;;0.31;85.18
49945;BME280;35838;49.134;9.212;2023-01-26T04:12:36;100390.03;;;0.39;85.59
49945;BME280;35838;49.134;9.212;2023-01-26T04:14:10;100391.88;;;0.43;85.35
49945;BME280;35838;49.134;9.212;2023-01-26T04:15:56;100380.34;;;0.51;85.33
49945;BME280;35838;49.134;9.212;2023-01-26T04:17:45;100385.59;;;0.54;84.69
49945;BME280;35838;49.134;9.212;2023-01-26T04:19:31;100384.50;;;0.49;84.58
49945;BME280;35838;49.134;9.212;2023-01-26T04:21:17;100379.59;;;0.54;84.57
49945;BME280;35838;49.134;9.212;2023-01-26T04:23:02;100386.25;;;0.70;84.26
49945;BME280;35838;49.134;9.212;2023-01-26T04:24:36;100372.28;;;0.61;83.64
49945;BME280;35838;49.134;9.212;2023-01-26T04:26:10;100372.94;;;0.57;83.66
49945;BME280;35838;49.134;9.212;2023-01-26T04:27:41;100377.78;;;0.51;83.78
49945;BME280;35838;49.134;9.212;2023-01-26T04:29:15;100374.81;;;0.42;84.30
49945;BME280;35838;49.134;9.212;2023-01-26T04:30:49;100379.59;;;0.34;84.96
49945;BME280;35838;49.134;9.212;2023-01-26T04:32:22;100376.72;;;0.46;85.32
49945;BME280;35838;49.134;9.212;2023-01-26T04:33:59;100375.31;;;0.53;85.06
49945;BME280;35838;49.134;9.212;2023-01-26T04:35:31;100380.88;;;0.64;84.84
49945;BME280;35838;49.134;9.212;2023-01-26T04:37:05;100376.84;;;0.69;84.25
49945;BME280;35838;49.134;9.212;2023-01-26T04:38:39;100381.22;;;0.52;83.22
49945;BME280;35838;49.134;9.212;2023-01-26T04:40:12;100374.22;;;0.47;83.14
49945;BME280;35838;49.134;9.212;2023-01-26T04:41:46;100383.22;;;0.39;82.97
49945;BME280;35838;49.134;9.212;2023-01-26T04:43:20;100374.97;;;0.45;83.15
49945;BME280;35838;49.134;9.212;2023-01-26T04:44:53;100376.03;;;0.50;83.51
49945;BME280;35838;49.134;9.212;2023-01-26T04:46:27;100375.63;;;0.41;83.11
49945;BME280;35838;49.134;9.212;2023-01-26T04:48:00;100372.00;;;0.36;83.03
49945;BME280;35838;49.134;9.212;2023-01-26T04:49:37;100369.44;;;0.36;82.68
49945;BME280;35838;49.134;9.212;2023-01-26T04:51:11;100374.75;;;0.40;82.91
49945;BME280;35838;49.134;9.212;2023-01-26T04:52:45;100371.72;;;0.49;82.96
49945;BME280;35838;49.134;9.212;2023-01-26T04:54:18;100369.16;;;0.49;82.67
49945;BME280;35838;49.134;9.212;2023-01-26T04:55:52;100362.19;;;0.45;82.40
49945;BME280;35838;49.134;9.212;2023-01-26T04:57:23;100367.50;;;0.50;82.80
49945;BME280;35838;49.134;9.212;2023-01-26T04:58:58;100366.75;;;0.52;82.90
49945;BME280;35838;49.134;9.212;2023-01-26T05:00:32;100374.63;;;0.57;82.54
49945;BME280;35838;49.134;9.212;2023-01-26T05:02:05;100369.56;;;0.58;81.96
49945;BME280;35838;49.134;9.212;2023-01-26T05:03:39;100371.88;;;0.52;81.94
49945;BME280;35838;49.134;9.212;2023-01-26T05:05:15;100366.91;;;0.55;82.37
49945;BME280;35838;49.134;9.212;2023-01-26T05:06:49;100369.78;;;0.63;82.52
49945;BME280;35838;49.134;9.212;2023-01-26T05:08:22;100371.72;;;0.69;82.44
49945;BME280;35838;49.134;9.212;2023-01-26T05:09:56;100373.13;;;0.62;81.86
49945;BME280;35838;49.134;9.212;2023-01-26T05:11:35;100375.22;;;0.71;81.88
49945;BME280;35838;49.134;9.212;2023-01-26T05:13:09;100370.66;;;0.64;81.69
49945;BME280;35838;49.134;9.212;2023-01-26T05:14:40;100375.78;;;0.64;81.99
49945;BME280;35838;49.134;9.212;2023-01-26T05:16:14;100369.47;;;0.75;81.87
49945;BME280;35838;49.134;9.212;2023-01-26T05:17:47;100368.78;;;0.59;81.23
49945;BME280;35838;49.134;9.212;2023-01-26T05:19:21;100368.50;;;0.53;81.21
49945;BME280;35838;49.134;9.212;2023-01-26T05:20:57;100374.44;;;0.72;81.26
49945;BME280;35838;49.134;9.212;2023-01-26T05:22:31;100371.81;;;0.70;81.59
49945;BME280;35838;49.134;9.212;2023-01-26T05:24:05;100367.00;;;0.58;81.54
49945;BME280;35838;49.134;9.212;2023-01-26T05:25:39;100366.50;;;0.66;81.78
49945;BME280;35838;49.134;9.212;2023-01-26T05:27:12;100365.16;;;0.54;81.66
49945;BME280;35838;49.134;9.212;2023-01-26T05:28:52;100369.91;;;0.66;81.88
49945;BME280;35838;49.134;9.212;2023-01-26T05:30:26;100370.31;;;0.75;82.11
49945;BME280;35838;49.134;9.212;2023-01-26T05:31:59;100372.63;;;0.69;81.72
49945;BME280;35838;49.134;9.212;2023-01-26T05:33:34;100373.22;;;0.64;81.89
49945;BME280;35838;49.134;9.212;2023-01-26T05:35:07;100365.47;;;0.62;81.49
49945;BME280;35838;49.134;9.212;2023-01-26T05:36:44;100365.66;;;0.67;81.06
49945;BME280;35838;49.134;9.212;2023-01-26T05:38:18;100363.13;;;0.67;80.95
49945;BME280;35838;49.134;9.212;2023-01-26T05:39:51;100362.41;;;0.69;81.28
49945;BME280;35838;49.134;9.212;2023-01-26T05:41:22;100366.06;;;0.76;81.91
49945;BME280;35838;49.134;9.212;2023-01-26T05:42:56;100361.41;;;0.66;81.44
49945;BME280;35838;49.134;9.212;2023-01-26T05:44:30;100365.25;;;0.57;81.71
49945;BME280;35838;49.134;9.212;2023-01-26T05:46:01;100371.63;;;0.66;82.26
49945;BME280;35838;49.134;9.212;2023-01-26T05:47:35;100369.16;;;0.69;82.46
49945;BME280;35838;49.134;9.212;2023-01-26T05:49:06;100371.94;;;0.73;82.38
49945;BME280;35838;49.134;9.212;2023-01-26T05:50:39;100367.97;;;0.80;82.62
49945;BME280;35838;49.134;9.212;2023-01-26T05:52:16;100364.34;;;0.75;82.45
49945;BME280;35838;49.134;9.212;2023-01-26T05:53:47;100364.47;;;0.78;82.13
49945;BME280;35838;49.134;9.212;2023-01-26T05:55:21;100365.06;;;0.72;81.77
49945;BME280;35838;49.134;9.212;2023-01-26T05:56:55;100366.63;;;0.69;81.46
49945;BME280;35838;49.134;9.212;2023-01-26T05:58:29;100361.44;;;0.67;81.81
49945;BME280;35838;49.134;9.212;2023-01-26T06:00:03;100363.47;;;0.74;81.80
49945;BME280;35838;49.134;9.212;2023-01-26T06:01:36;100364.59;;;0.81;82.14
49945;BME280;35838;49.134;9.212;2023-01-26T06:03:10;100372.56;;;0.89;81.98
49945;BME280;35838;49.134;9.212;2023-01-26T06:04:44;100369.56;;;0.98;82.16
49945;BME280;35838;49.134;9.212;2023-01-26T06:06:20;100370.34;;;0.97;82.35
49945;BME280;35838;49.134;9.212;2023-01-26T06:07:56;100367.00;;;0.98;81.92
49945;BME280;35838;49.134;9.212;2023-01-26T06:09:30;100365.50;;;1.03;82.07
49945;BME280;35838;49.134;9.212;2023-01-26T06:11:04;100366.28;;;1.02;81.85
49945;BME280;35838;49.134;9.212;2023-01-26T06:12:37;100366.38;;;1.03;81.83
49945;BME280;35838;49.134;9.212;2023-01-26T06:14:12;100359.47;;;1.01;81.14
49945;BME280;35838;49.134;9.212;2023-01-26T06:15:46;100360.63;;;0.88;80.71
49945;BME280;35838;49.134;9.212;2023-01-26T06:17:19;100358.75;;;0.84;80.60
49945;BME280;35838;49.134;9.212;2023-01-26T06:18:53;100353.28;;;0.76;81.16
49945;BME280;35838;49.134;9.212;2023-01-26T06:20:27;100360.75;;;0.71;81.14
49945;BME280;35838;49.134;9.212;2023-01-26T06:22:00;100363.59;;;0.77;81.52
49945;BME280;35838;49.134;9.212;2023-01-26T06:23:37;100365.06;;;0.72;81.12
49945;BME280;35838;49.134;9.212;2023-01-26T06:25:10;100362.84;;;0.80;81.46
49945;BME280;35838;49.134;9.212;2023-01-26T06:26:45;100371.72;;;0.88;81.46
49945;BME280;35838;49.134;9.212;2023-01-26T06:28:19;100365.84;;;0.91;81.42
49945;BME280;35838;49.134;9.212;2023-01-26T06:29:52;100365.00;;;0.90;81.40
49945;BME280;35838;49.134;9.212;2023-01-26T06:31:26;100378.88;;;0.97;81.52
49945;BME280;35838;49.134;9.212;2023-01-26T06:33:00;100378.84;;;0.96;81.60
49945;BME280;35838;49.134;9.212;2023-01-26T06:34:36;100378.97;;;0.99;81.00
49945;BME280;35838;49.134;9.212;2023-01-26T06:36:10;100369.88;;;1.05;80.92
49945;BME280;35838;49.134;9.212;2023-01-26T06:37:46;100374.34;;;1.11;80.64
49945;BME280;35838;49.134;9.212;2023-01-26T06:39:22;100370.13;;;1.12;80.59
49945;BME280;35838;49.134;9.212;2023-01-26T06:40:58;100377.59;;;1.07;80.37
49945;BME280;35838;49.134;9.212;2023-01-26T06:42:32;100385.53;;;1.13;80.01
49945;BME280;35838;49.134;9.212;2023-01-26T06:44:07;100373.63;;;1.14;80.23
49945;BME280;35838;49.134;9.212;2023-01-26T06:45:40;100368.56;;;1.15;80.17
49945;BME280;35838;49.134;9.212;2023-01-26T06:47:14;100369.44;;;1.16;79.81
49945;BME280;35838;49.134;9.212;2023-01-26T06:48:48;100375.50;;;1.18;79.62
49945;BME280;35838;49.134;9.212;2023-01-26T06:50:22;100375.63;;;1.21;79.35
49945;BME280;35838;49.134;9.212;2023-01-26T06:51:58;100374.75;;;1.20;79.07
49945;BME280;35838;49.134;9.212;2023-01-26T06:53:36;100373.13;;;1.22;79.24
49945;BME280;35838;49.134;9.212;2023-01-26T06:55:17;100376.25;;;1.15;78.91
49945;BME280;35838;49.134;9.212;2023-01-26T06:56:52;100380.75;;;1.21;78.32
49945;BME280;35838;49.134;9.212;2023-01-26T06:58:25;100371.13;;;1.15;78.13
49945;BME280;35838;49.134;9.212;2023-01-26T06:59:56;100387.44;;;0.98;77.95
49945;BME280;35838;49.134;9.212;2023-01-26T07:01:30;100383.34;;;1.01;78.27
49945;BME280;35838;49.134;9.212;2023-01-26T07:03:05;100381.38;;;0.96;78.34
49945;BME280;35838;49.134;9.212;2023-01-26T07:04:39;100387.38;;;0.96;78.52
49945;BME280;35838;49.134;9.212;2023-01-26T07:06:13;100385.44;;;0.90;78.89
49945;BME280;35838;49.134;9.212;2023-01-26T07:07:46;100381.38;;;0.96;79.24
49945;BME280;35838;49.134;9.212;2023-01-26T07:09:20;100374.72;;;0.99;79.31
49945;BME280;35838;49.134;9.212;2023-01-26T07:10:56;100384.38;;;1.06;79.41
49945;BME280;35838;49.134;9.212;2023-01-26T07:12:36;100380.84;;;1.03;79.34
49945;BME280;35838;49.134;9.212;2023-01-26T07:14:10;100377.56;;;1.05;79.31
49945;BME280;35838;49.134;9.212;2023-01-26T07:15:43;100383.38;;;1.03;79.04
49945;BME280;35838;49.134;9.212;2023-01-26T07:17:17;100384.66;;;1.13;78.54
49945;BME280;35838;49.134;9.212;2023-01-26T07:18:51;100389.84;;;1.14;78.64
49945;BME280;35838;49.134;9.212;2023-01-26T07:20:25;100387.47;;;1.19;78.71
49945;BME280;35838;49.134;9.212;2023-01-26T07:21:59;100385.84;;;1.21;78.65
49945;BME280;35838;49.134;9.212;2023-01-26T07:23:32;100394.38;;;1.21;78.55
49945;BME280;35838;49.134;9.212;2023-01-26T07:25:06;100386.03;;;1.04;78.23
49945;BME280;35838;49.134;9.212;2023-01-26T07:26:42;100396.97;;;1.02;78.29
49945;BME280;35838;49.134;9.212;2023-01-26T07:28:16;100394.41;;;1.02;78.47
49945;BME280;35838;49.134;9.212;2023-01-26T07:29:50;100393.69;;;1.04;78.58
49945;BME280;35838;49.134;9.212;2023-01-26T07:31:23;100389.69;;;1.11;79.26
49945;BME280;35838;49.134;9.212;2023-01-26T07:32:58;100398.06;;;1.07;79.24
49945;BME280;35838;49.134;9.212;2023-01-26T07:34:31;100393.78;;;0.86;78.82
49945;BME280;35838;49.134;9.212;2023-01-26T07:36:05;100396.47;;;0.70;79.66
49945;BME280;35838;49.134;9.212;2023-01-26T07:37:40;100391.00;;;0.82;79.92
49945;BME280;35838;49.134;9.212;2023-01-26T07:39:14;100400.50;;;0.84;79.94
49945;BME280;35838;49.134;9.212;2023-01-26T07:40:47;100392.25;;;0.70;79.95
49945;BME280;35838;49.134;9.212;2023-01-26T07:42:23;100398.78;;;0.64;80.65
49945;BME280;35838;49.134;9.212;2023-01-26T07:43:57;100400.38;;;0.61;81.17
49945;BME280;35838;49.134;9.212;2023-01-26T07:45:31;100395.13;;;0.58;81.54
49945;BME280;35838;49.134;9.212;2023-01-26T07:47:05;100384.91;;;0.39;81.76
49945;BME280;35838;49.134;9.212;2023-01-26T07:48:38;100387.47;;;0.39;82.17
49945;BME280;35838;49.134;9.212;2023-01-26T07:50:12;100392.31;;;0.52;82.01
49945;BME280;35838;49.134;9.212;2023-01-26T07:51:46;100392.56;;;0.58;82.03
49945;BME280;35838;49.134;9.212;2023-01-26T07:53:22;100391.97;;;0.64;81.60
49945;BME280;35838;49.134;9.212;2023-01-26T07:54:57;100392.25;;;0.70;80.93
49945;BME280;35838;49.134;9.212;2023-01-26T07:56:31;100389.28;;;0.41;80.60
49945;BME280;35838;49.134;9.212;2023-01-26T07:58:08;100390.03;;;0.39;81.21
49945;BME280;35838;49.134;9.212;2023-01-26T07:59:42;100393.78;;;0.47;81.45
49945;BME280;35838;49.134;9.212;2023-01-26T08:01:15;100393.28;;;0.36;81.42
49945;BME280;35838;49.134;9.212;2023-01-26T08:02:49;100395.66;;;0.51;81.63
49945;BME280;35838;49.134;9.212;2023-01-26T08:04:23;100397.41;;;0.52;81.16
49945;BME280;35838;49.134;9.212;2023-01-26T08:05:56;100397.16;;;0.46;80.91
49945;BME280;35838;49.134;9.212;2023-01-26T08:07:30;100399.41;;;0.40;81.06
49945;BME280;35838;49.134;9.212;2023-01-26T08:09:04;100390.69;;;0.35;81.27
49945;BME280;35838;49.134;9.212;2023-01-26T08:10:37;100390.13;;;0.42;81.56
49945;BME280;35838;49.134;9.212;2023-01-26T08:12:11;100392.78;;;0.43;81.50
49945;BME280;35838;49.134;9.212;2023-01-26T08:13:47;100396.59;;;0.53;81.42
49945;BME280;35838;49.134;9.212;2023-01-26T08:15:21;100396.88;;;0.59;80.92
49945;BME280;35838;49.134;9.212;2023-01-26T08:16:54;100390.56;;;0.71;80.90
49945;BME280;35838;49.134;9.212;2023-01-26T08:18:28;100384.78;;;0.75;80.57
49945;BME280;35838;49.134;9.212;2023-01-26T08:20:02;100382.75;;;0.68;80.31
49945;BME280;35838;49.134;9.212;2023-01-26T08:21:36;100387.19;;;0.72;80.62
49945;BME280;35838;49.134;9.212;2023-01-26T08:23:09;100395.13;;;0.78;80.85
49945;BME280;35838;49.134;9.212;2023-01-26T08:24:43;100387.59;;;0.81;80.91